createdAt,value
2022-12-04T00:00:53.821Z,35.05
2022-12-04T00:03:20.783Z,34.60
2022-12-04T00:05:47.701Z,33.80
2022-12-04T00:08:14.599Z,35.90
2022-12-04T00:10:44.527Z,35.10
2022-12-04T00:13:11.759Z,33.70
2022-12-04T00:15:42.156Z,34.92
2022-12-04T00:18:09.006Z,35.17
2022-12-04T00:20:39.788Z,34.20
2022-12-04T00:23:07.325Z,36.50
2022-12-04T00:25:37.860Z,34.70
2022-12-04T00:28:07.814Z,33.63
2022-12-04T00:30:34.772Z,34.80
2022-12-04T00:33:01.607Z,33.85
2022-12-04T00:35:28.499Z,34.53
2022-12-04T00:37:55.337Z,34.70
2022-12-04T00:40:22.198Z,35.50
2022-12-04T00:42:49.204Z,36.00
2022-12-04T00:45:16.144Z,34.38
2022-12-04T00:47:43.058Z,34.88
2022-12-04T00:50:10.507Z,34.30
2022-12-04T00:52:37.374Z,34.58
2022-12-04T00:55:04.498Z,35.15
2022-12-04T00:57:31.424Z,34.92
2022-12-04T00:59:58.319Z,34.75
2022-12-04T01:02:25.189Z,34.97
2022-12-04T01:04:52.083Z,34.83
2022-12-04T01:07:19.063Z,34.40
2022-12-04T01:09:45.940Z,33.33
2022-12-04T01:12:16.256Z,33.85
2022-12-04T01:14:47.305Z,33.60
2022-12-04T01:17:14.259Z,33.47
2022-12-04T01:19:41.137Z,33.03
2022-12-04T01:22:07.979Z,34.28
2022-12-04T01:24:34.864Z,32.88
2022-12-04T01:27:01.789Z,33.78
2022-12-04T01:29:28.624Z,34.55
2022-12-04T01:31:55.699Z,33.83
2022-12-04T01:34:22.614Z,32.55
2022-12-04T01:36:49.510Z,32.42
2022-12-04T01:39:16.401Z,32.08
2022-12-04T01:41:43.286Z,32.45
2022-12-04T01:44:13.756Z,32.53
2022-12-04T01:46:41.289Z,32.13
2022-12-04T01:49:09.531Z,33.20
2022-12-04T01:51:39.049Z,32.40
2022-12-04T01:54:09.106Z,31.10
2022-12-04T01:56:54.191Z,32.35
2022-12-04T01:59:22.862Z,32.55
2022-12-04T02:01:53.911Z,31.45
2022-12-04T02:04:20.911Z,30.63
2022-12-04T02:06:47.861Z,31.42
2022-12-04T02:09:15.068Z,31.25
2022-12-04T02:11:52.444Z,31.65
2022-12-04T02:14:26.122Z,30.48
2022-12-04T02:17:14.744Z,29.48
2022-12-04T02:20:09.731Z,30.05
2022-12-04T02:23:09.557Z,30.67
2022-12-04T02:25:53.604Z,29.25
2022-12-04T02:28:24.086Z,29.40
2022-12-04T02:30:56.537Z,29.13
2022-12-04T02:33:30.488Z,30.67
2022-12-04T02:36:05.668Z,31.35
2022-12-04T02:38:55.522Z,30.75
2022-12-04T02:41:36.396Z,29.73
2022-12-04T02:44:22.008Z,31.05
2022-12-04T02:46:51.195Z,30.02
2022-12-04T02:49:21.301Z,32.58
2022-12-04T02:51:48.658Z,29.83
2022-12-04T02:54:25.511Z,31.60
2022-12-04T02:56:52.383Z,30.00
2022-12-04T02:59:42.771Z,30.50
2022-12-04T03:02:12.810Z,30.20
2022-12-04T03:04:39.747Z,30.73
2022-12-04T03:07:18.255Z,29.80
2022-12-04T03:09:52.919Z,30.10
2022-12-04T03:12:52.468Z,29.80
2022-12-04T03:15:27.883Z,29.42
2022-12-04T03:18:03.404Z,29.33
2022-12-04T03:20:31.513Z,29.80
2022-12-04T03:23:04.114Z,29.25
2022-12-04T03:25:39.903Z,30.35
2022-12-04T03:28:14.531Z,29.52
2022-12-04T03:30:44.681Z,28.70
2022-12-04T03:33:20.382Z,27.92
2022-12-04T03:36:07.383Z,29.70
2022-12-04T03:38:58.568Z,28.52
2022-12-04T03:41:38.284Z,27.98
2022-12-04T03:44:12.595Z,28.63
2022-12-04T03:46:45.981Z,28.88
2022-12-04T03:49:17.704Z,28.58
2022-12-04T03:51:51.109Z,28.92
2022-12-04T03:54:20.154Z,28.25
2022-12-04T03:56:52.176Z,26.80
2022-12-04T03:59:24.650Z,28.38
2022-12-04T04:01:51.703Z,27.13
2022-12-04T04:04:22.164Z,27.75
2022-12-04T04:07:02.411Z,27.55
2022-12-04T04:09:31.764Z,27.02
2022-12-04T04:12:08.335Z,27.00
2022-12-04T04:14:57.496Z,26.90
2022-12-04T04:17:44.533Z,27.38
2022-12-04T04:20:56.433Z,26.75
2022-12-04T04:23:42.285Z,27.73
2022-12-04T04:26:09.436Z,27.75
2022-12-04T04:28:38.505Z,27.35
2022-12-04T04:31:26.850Z,26.00
2022-12-04T04:34:02.973Z,27.50
2022-12-04T04:36:55.800Z,26.83
2022-12-04T04:39:34.569Z,26.00
2022-12-04T04:42:29.059Z,26.23
2022-12-04T04:45:05.573Z,26.27
2022-12-04T04:47:41.502Z,26.85
2022-12-04T04:50:10.320Z,26.20
2022-12-04T04:52:38.233Z,28.27
2022-12-04T04:55:05.535Z,27.98
2022-12-04T04:57:35.792Z,28.33
2022-12-04T05:00:14.528Z,27.17
2022-12-04T05:02:41.708Z,28.08
2022-12-04T05:05:09.237Z,27.05
2022-12-04T05:07:36.208Z,27.88
2022-12-04T05:10:03.530Z,28.48
2022-12-04T05:12:30.579Z,26.75
2022-12-04T05:14:57.486Z,28.13
2022-12-04T05:17:24.403Z,28.10
2022-12-04T05:19:55.053Z,28.00
2022-12-04T05:22:40.269Z,27.52
2022-12-04T05:25:07.560Z,27.02
2022-12-04T05:27:34.401Z,27.58
2022-12-04T05:30:01.334Z,26.98
2022-12-04T05:32:28.876Z,26.80
2022-12-04T05:34:56.218Z,27.23
2022-12-04T05:37:23.266Z,25.70
2022-12-04T05:39:50.110Z,26.23
2022-12-04T05:42:17.037Z,26.45
2022-12-04T05:44:44.030Z,26.70
2022-12-04T05:47:11.031Z,26.10
2022-12-04T05:49:37.914Z,27.00
2022-12-04T05:52:05.361Z,25.83
2022-12-04T05:54:32.381Z,25.25
2022-12-04T05:56:59.513Z,26.42
2022-12-04T05:59:26.418Z,26.23
2022-12-04T06:01:53.303Z,25.60
2022-12-04T06:04:20.233Z,26.42
2022-12-04T06:06:47.233Z,27.30
2022-12-04T06:09:14.104Z,26.75
2022-12-04T06:11:41.347Z,26.52
2022-12-04T06:14:10.588Z,26.98
2022-12-04T06:16:38.973Z,26.83
2022-12-04T06:19:10.539Z,26.50
2022-12-04T06:21:39.077Z,27.35
2022-12-04T06:24:06.476Z,27.17
2022-12-04T06:26:33.446Z,26.08
2022-12-04T06:29:00.662Z,27.15
2022-12-04T06:31:28.407Z,25.90
2022-12-04T06:33:55.902Z,26.08
2022-12-04T06:36:22.972Z,25.77
2022-12-04T06:38:50.466Z,26.55
2022-12-04T06:41:18.978Z,25.50
2022-12-04T06:43:45.958Z,25.10
2022-12-04T06:46:18.984Z,26.73
2022-12-04T06:48:45.985Z,27.73
2022-12-04T06:51:22.607Z,26.05
2022-12-04T06:53:49.561Z,26.20
2022-12-04T06:56:18.081Z,25.60
2022-12-04T06:58:45.811Z,26.15
2022-12-04T07:01:14.722Z,26.05
2022-12-04T07:03:46.346Z,24.55
2022-12-04T07:06:20.415Z,25.23
2022-12-04T07:08:50.079Z,26.35
2022-12-04T07:11:17.152Z,25.65
2022-12-04T07:13:44.096Z,26.05
2022-12-04T07:16:12.871Z,26.50
2022-12-04T07:18:39.926Z,26.88
2022-12-04T07:21:07.955Z,26.55
2022-12-04T07:23:35.181Z,27.42
2022-12-04T07:26:06.409Z,25.88
2022-12-04T07:28:33.753Z,26.42
2022-12-04T07:31:13.217Z,25.70
2022-12-04T07:33:40.643Z,25.95
2022-12-04T07:36:09.102Z,26.42
2022-12-04T07:38:35.982Z,26.20
2022-12-04T07:41:04.091Z,25.73
2022-12-04T07:43:31.162Z,26.20
2022-12-04T07:45:58.354Z,26.08
2022-12-04T07:48:30.255Z,27.08
2022-12-04T07:51:23.528Z,26.10
2022-12-04T07:53:50.906Z,25.70
2022-12-04T07:56:18.172Z,26.63
2022-12-04T07:58:45.187Z,25.75
2022-12-04T08:01:13.209Z,25.77
2022-12-04T08:03:47.594Z,26.33
2022-12-04T08:06:16.568Z,29.02
2022-12-04T08:08:43.427Z,27.08
2022-12-04T08:11:11.716Z,27.65
2022-12-04T08:13:38.661Z,27.95
2022-12-04T08:16:06.648Z,28.63
2022-12-04T08:18:33.627Z,28.48
2022-12-04T08:21:10.274Z,28.27
2022-12-04T08:23:37.326Z,27.05
2022-12-04T08:26:04.594Z,28.60
2022-12-04T08:28:31.698Z,28.50
2022-12-04T08:31:13.035Z,27.55
2022-12-04T08:33:42.796Z,28.00
2022-12-04T08:36:10.789Z,27.20
2022-12-04T08:38:37.629Z,27.10
2022-12-04T08:41:05.876Z,26.98
2022-12-04T08:43:33.027Z,28.13
2022-12-04T08:46:06.470Z,28.63
2022-12-04T08:48:33.644Z,28.05
2022-12-04T08:51:01.041Z,27.52
2022-12-04T08:53:28.036Z,27.25
2022-12-04T08:55:54.954Z,28.73
2022-12-04T08:58:21.863Z,28.50
2022-12-04T09:00:49.220Z,27.23
2022-12-04T09:03:17.586Z,27.33
2022-12-04T09:05:45.982Z,27.98
2022-12-04T09:08:16.271Z,27.17
2022-12-04T09:10:43.620Z,27.05
2022-12-04T09:13:10.591Z,26.75
2022-12-04T09:15:40.582Z,26.83
2022-12-04T09:18:07.872Z,27.15
2022-12-04T09:20:34.779Z,26.38
2022-12-04T09:23:04.415Z,27.85
2022-12-04T09:25:34.646Z,25.80
2022-12-04T09:28:01.825Z,26.27
2022-12-04T09:30:28.725Z,26.00
2022-12-04T09:32:55.549Z,26.08
2022-12-04T09:35:22.407Z,26.92
2022-12-04T09:37:49.296Z,25.90
2022-12-04T09:40:30.724Z,27.02
2022-12-04T09:43:03.911Z,26.50
2022-12-04T09:45:31.803Z,25.92
2022-12-04T09:47:58.696Z,26.45
2022-12-04T09:50:28.934Z,26.95
2022-12-04T09:52:57.451Z,26.58
2022-12-04T09:55:27.762Z,25.88
2022-12-04T09:58:01.483Z,26.35
2022-12-04T10:00:29.679Z,26.10
2022-12-04T10:03:01.052Z,26.38
2022-12-04T10:06:05.693Z,26.05
2022-12-04T10:08:38.743Z,25.88
2022-12-04T10:11:29.161Z,26.17
2022-12-04T10:14:17.963Z,25.08
2022-12-04T10:16:47.754Z,26.42
2022-12-04T10:19:35.734Z,26.45
2022-12-04T10:22:08.214Z,26.85
2022-12-04T10:24:46.258Z,26.15
2022-12-04T10:27:23.926Z,27.33
2022-12-04T10:30:05.420Z,25.48
2022-12-04T10:32:32.884Z,27.30
2022-12-04T10:35:26.748Z,25.75
2022-12-04T10:38:04.419Z,26.58
2022-12-04T10:40:56.404Z,27.38
2022-12-04T10:43:44.135Z,27.83
2022-12-04T10:46:40.571Z,27.17
2022-12-04T10:49:45.615Z,26.45
2022-12-04T10:52:16.625Z,26.92
2022-12-04T10:54:56.637Z,27.30
2022-12-04T10:57:41.263Z,27.83
2022-12-04T11:00:34.390Z,27.35
2022-12-04T11:03:03.283Z,28.20
2022-12-04T11:05:45.164Z,28.15
2022-12-04T11:08:21.698Z,27.48
2022-12-04T11:11:07.039Z,28.20
2022-12-04T11:13:34.045Z,28.17
2022-12-04T11:16:01.098Z,29.27
2022-12-04T11:18:30.272Z,29.25
2022-12-04T11:21:01.017Z,29.63
2022-12-04T11:23:30.745Z,28.73
2022-12-04T11:26:03.837Z,28.70
2022-12-04T11:31:20.639Z,28.95
2022-12-04T11:33:56.110Z,28.52
2022-12-04T11:36:50.419Z,29.45
2022-12-04T11:39:19.817Z,28.73
2022-12-04T11:41:46.663Z,29.55
2022-12-04T11:44:36.729Z,30.65
2022-12-04T11:47:04.516Z,30.77
2022-12-04T11:49:32.022Z,30.88
2022-12-04T11:52:04.847Z,30.15
2022-12-04T11:54:34.727Z,29.90
2022-12-04T11:57:22.802Z,30.15
2022-12-04T12:00:01.645Z,29.50
2022-12-04T12:03:13.679Z,30.95
2022-12-04T12:06:11.524Z,30.10
2022-12-04T12:08:48.195Z,30.95
2022-12-04T12:11:34.797Z,31.70
2022-12-04T12:14:24.413Z,31.05
2022-12-04T12:17:21.780Z,31.45
2022-12-04T12:19:59.337Z,31.30
2022-12-04T12:22:53.719Z,30.77
2022-12-04T12:25:35.444Z,31.20
2022-12-04T12:28:13.608Z,33.08
2022-12-04T12:31:16.445Z,31.67
2022-12-04T12:33:58.706Z,34.25
2022-12-04T12:36:25.662Z,31.27
2022-12-04T12:38:57.678Z,31.63
2022-12-04T12:41:27.306Z,31.83
2022-12-04T12:44:01.323Z,32.88
2022-12-04T12:46:39.901Z,33.45
2022-12-04T12:49:12.294Z,33.22
2022-12-04T12:51:45.056Z,33.58
2022-12-04T12:54:17.877Z,33.40
2022-12-04T12:56:49.759Z,32.72
2022-12-04T12:59:21.971Z,32.28
2022-12-04T13:02:06.586Z,34.03
2022-12-04T13:04:43.938Z,33.92
2022-12-04T13:07:24.352Z,34.55
2022-12-04T13:09:51.190Z,33.55
2022-12-04T13:12:18.543Z,35.10
2022-12-04T13:14:49.059Z,33.75
2022-12-04T13:17:21.033Z,34.60
2022-12-04T13:19:51.910Z,36.15
2022-12-04T13:22:24.775Z,34.60
2022-12-04T13:25:06.795Z,34.42
2022-12-04T13:27:45.535Z,34.42
2022-12-04T13:30:14.815Z,34.83
2022-12-04T13:33:00.263Z,34.40
2022-12-04T13:35:29.999Z,34.15
2022-12-04T13:38:21.185Z,34.45
2022-12-04T13:40:58.952Z,35.47
2022-12-04T13:43:35.751Z,34.00
2022-12-04T13:46:05.273Z,35.03
2022-12-04T13:48:33.729Z,34.63
2022-12-04T13:51:02.935Z,34.70
2022-12-04T13:53:32.372Z,34.55
2022-12-04T13:56:03.059Z,34.92
2022-12-04T13:58:34.988Z,34.33
2022-12-04T14:01:22.428Z,34.08
2022-12-04T14:03:55.628Z,34.90
2022-12-04T14:06:28.338Z,36.10
2022-12-04T14:08:59.993Z,36.20
2022-12-04T14:11:27.150Z,34.95
2022-12-04T14:13:55.278Z,35.25
2022-12-04T14:16:25.277Z,35.03
2022-12-04T14:18:56.427Z,35.03
2022-12-04T14:21:23.484Z,34.97
2022-12-04T14:23:50.874Z,34.45
2022-12-04T14:26:20.645Z,34.35
2022-12-04T14:28:48.917Z,34.75
2022-12-04T14:31:34.377Z,35.33
2022-12-04T14:34:21.249Z,33.85
2022-12-04T14:36:48.654Z,33.60
2022-12-04T14:39:32.397Z,35.95
2022-12-04T14:42:26.698Z,34.55
2022-12-04T14:44:58.020Z,35.38
2022-12-04T14:47:28.066Z,33.80
2022-12-04T14:50:21.013Z,34.25
2022-12-04T14:52:54.523Z,34.53
2022-12-04T14:55:56.497Z,34.55
2022-12-04T14:58:34.791Z,33.22
2022-12-04T15:01:03.470Z,34.63
2022-12-04T15:03:31.713Z,34.30
2022-12-04T15:06:03.184Z,34.05
2022-12-04T15:08:30.139Z,32.35
2022-12-04T15:11:15.942Z,34.42
2022-12-04T15:13:42.851Z,33.70
2022-12-04T15:16:16.891Z,34.03
2022-12-04T15:18:56.676Z,33.67
2022-12-04T15:21:24.885Z,33.17
2022-12-04T15:23:51.738Z,34.75
2022-12-04T15:26:21.008Z,33.63
2022-12-04T15:28:52.958Z,32.30
2022-12-04T15:31:24.639Z,34.05
2022-12-04T15:33:53.355Z,33.78
2022-12-04T15:36:25.477Z,33.05
2022-12-04T15:38:52.567Z,34.88
2022-12-04T15:41:31.323Z,32.40
2022-12-04T15:43:58.750Z,32.67
2022-12-04T15:46:33.939Z,31.70
2022-12-04T15:49:20.545Z,30.92
2022-12-04T15:51:47.896Z,32.80
2022-12-04T15:54:24.140Z,32.00
2022-12-04T15:57:05.335Z,32.55
2022-12-04T15:59:33.031Z,31.88
2022-12-04T16:02:20.051Z,32.30
2022-12-04T16:04:47.077Z,29.75
2022-12-04T16:07:22.712Z,29.73
2022-12-04T16:09:51.807Z,31.10
2022-12-04T16:12:19.940Z,30.83
2022-12-04T16:14:46.843Z,29.88
2022-12-04T16:17:13.735Z,30.17
2022-12-04T16:19:41.337Z,29.98
2022-12-04T16:22:20.116Z,29.50
2022-12-04T16:24:47.465Z,29.83
2022-12-04T16:27:20.267Z,30.40
2022-12-04T16:29:47.168Z,28.90
2022-12-04T16:32:15.915Z,29.75
2022-12-04T16:34:42.886Z,28.75
2022-12-04T16:37:13.850Z,29.42
2022-12-04T16:39:41.581Z,29.95
2022-12-04T16:42:17.306Z,29.10
2022-12-04T16:44:44.318Z,28.20
2022-12-04T16:47:11.432Z,28.92
2022-12-04T16:49:38.611Z,28.67
2022-12-04T16:52:05.576Z,28.98
2022-12-04T16:54:32.518Z,29.77
2022-12-04T16:57:00.087Z,29.58
2022-12-04T16:59:27.372Z,29.23
2022-12-04T17:01:54.389Z,28.63
2022-12-04T17:04:21.495Z,28.05
2022-12-04T17:06:48.525Z,28.30
2022-12-04T17:09:15.642Z,28.50
2022-12-04T17:11:42.739Z,29.17
2022-12-04T17:14:09.852Z,26.30
2022-12-04T17:16:37.916Z,27.60
2022-12-04T17:19:05.120Z,26.35
2022-12-04T17:21:32.117Z,28.45
2022-12-04T17:23:59.002Z,28.25
2022-12-04T17:26:26.002Z,26.92
2022-12-04T17:28:52.896Z,27.15
2022-12-04T17:31:21.619Z,27.33
2022-12-04T17:33:48.704Z,28.13
2022-12-04T17:36:18.673Z,27.08
2022-12-04T17:38:45.549Z,33.55
2022-12-04T17:41:16.842Z,35.40
2022-12-04T17:43:43.747Z,39.22
2022-12-04T17:46:11.753Z,57.90
2022-12-04T17:48:38.833Z,68.70
2022-12-04T17:51:13.441Z,68.53
2022-12-04T17:53:40.533Z,71.10
2022-12-04T17:56:12.512Z,71.88
2022-12-04T17:58:39.507Z,71.10
2022-12-04T18:01:10.915Z,70.35
2022-12-04T18:03:38.243Z,69.22
2022-12-04T18:06:18.454Z,70.78
2022-12-04T18:08:50.043Z,71.55
2022-12-04T18:11:20.872Z,69.18
2022-12-04T18:13:53.695Z,68.45
2022-12-04T18:16:20.621Z,67.07
2022-12-04T18:18:47.777Z,63.75
2022-12-04T18:21:15.009Z,63.67
2022-12-04T18:23:45.802Z,64.50
2022-12-04T18:26:20.761Z,58.80
2022-12-04T18:28:49.123Z,61.58
2022-12-04T18:31:18.310Z,60.53
2022-12-04T18:33:45.326Z,59.05
2022-12-04T18:36:17.017Z,57.55
2022-12-04T18:38:44.150Z,57.90
2022-12-04T18:41:11.902Z,56.88
2022-12-04T18:43:44.231Z,56.53
2022-12-04T18:46:12.767Z,54.95
2022-12-04T18:48:42.466Z,55.85
2022-12-04T18:51:26.934Z,55.58
2022-12-04T18:53:55.804Z,53.95
2022-12-04T18:56:22.757Z,51.92
2022-12-04T18:58:49.718Z,51.70
2022-12-04T19:01:19.615Z,50.28
2022-12-04T19:03:47.086Z,49.58
2022-12-04T19:06:14.260Z,48.67
2022-12-04T19:08:42.980Z,48.17
2022-12-04T19:11:15.253Z,48.15
2022-12-04T19:13:42.220Z,48.00
2022-12-04T19:16:13.135Z,45.72
2022-12-04T19:18:40.487Z,45.47
2022-12-04T19:21:08.214Z,45.22
2022-12-04T19:23:35.139Z,43.70
2022-12-04T19:26:02.049Z,44.75
2022-12-04T19:28:29.083Z,44.28
2022-12-04T19:30:56.036Z,43.95
2022-12-04T19:33:23.537Z,43.50
2022-12-04T19:36:01.647Z,44.03
2022-12-04T19:38:29.071Z,43.38
2022-12-04T19:41:16.343Z,43.05
2022-12-04T19:43:45.217Z,41.65
2022-12-04T19:46:13.648Z,41.05
2022-12-04T19:48:40.726Z,41.45
2022-12-04T19:51:15.133Z,40.30
2022-12-04T19:53:42.476Z,43.60
2022-12-04T19:56:11.776Z,42.10
2022-12-04T19:58:38.684Z,41.30
2022-12-04T20:01:06.890Z,41.22
2022-12-04T20:03:34.064Z,40.78
2022-12-04T20:06:05.327Z,41.05
2022-12-04T20:08:32.256Z,40.45
2022-12-04T20:11:06.505Z,38.83
2022-12-04T20:13:36.765Z,39.20
2022-12-04T20:16:04.409Z,39.80
2022-12-04T20:18:31.486Z,38.17
2022-12-04T20:20:59.110Z,39.10
2022-12-04T20:23:26.015Z,39.85
2022-12-04T20:25:52.920Z,38.95
2022-12-04T20:28:20.043Z,40.42
2022-12-04T20:30:47.041Z,38.28
2022-12-04T20:33:14.092Z,39.30
2022-12-04T20:35:41.109Z,37.25
2022-12-04T20:38:07.979Z,36.75
2022-12-04T20:40:35.095Z,37.75
2022-12-04T20:43:02.245Z,36.97
2022-12-04T20:45:30.062Z,37.65
2022-12-04T20:47:57.070Z,36.00
2022-12-04T20:50:23.938Z,36.95
2022-12-04T20:52:50.799Z,36.47
2022-12-04T20:55:17.765Z,36.20
2022-12-04T20:57:44.701Z,35.63
2022-12-04T21:00:12.024Z,34.33
2022-12-04T21:02:39.049Z,36.50
2022-12-04T21:05:06.435Z,35.28
2022-12-04T21:07:33.463Z,34.50
2022-12-04T21:10:00.522Z,35.90
2022-12-04T21:12:46.198Z,34.60
2022-12-04T21:15:31.973Z,34.20
2022-12-04T21:18:00.921Z,35.35
2022-12-04T21:20:27.799Z,34.30
2022-12-04T21:22:54.692Z,34.15
2022-12-04T21:25:21.575Z,34.35
2022-12-04T21:27:48.457Z,33.25
2022-12-04T21:30:15.342Z,33.88
2022-12-04T21:32:42.194Z,34.83
2022-12-04T21:35:09.439Z,33.45
2022-12-04T21:37:36.395Z,32.90
2022-12-04T21:40:03.874Z,33.03
2022-12-04T21:42:30.776Z,32.75
2022-12-04T21:45:01.378Z,32.05
2022-12-04T21:47:28.457Z,31.55
2022-12-04T21:49:55.709Z,31.65
2022-12-04T21:52:23.004Z,32.33
2022-12-04T21:54:53.329Z,32.85
2022-12-04T21:57:20.368Z,32.33
2022-12-04T21:59:47.449Z,32.03
2022-12-04T22:02:14.669Z,32.17
2022-12-04T22:04:41.638Z,29.88
2022-12-04T22:07:08.615Z,31.10
2022-12-04T22:09:36.543Z,31.40
2022-12-04T22:12:14.697Z,31.30
2022-12-04T22:14:50.430Z,30.77
2022-12-04T22:17:17.275Z,30.85
2022-12-04T22:19:44.108Z,29.88
2022-12-04T22:22:11.211Z,30.00
2022-12-04T22:24:38.064Z,31.00
2022-12-04T22:27:04.938Z,29.38
2022-12-04T22:30:02.341Z,30.13
2022-12-04T22:32:19.427Z,30.10
2022-12-04T22:34:49.118Z,28.58
2022-12-04T22:37:16.004Z,29.23
2022-12-04T22:39:42.855Z,29.27
2022-12-04T22:42:09.757Z,28.75
2022-12-04T22:44:36.609Z,29.92
2022-12-04T22:47:03.645Z,29.25
2022-12-04T22:49:30.573Z,28.48
2022-12-04T22:51:57.477Z,31.23
2022-12-04T22:54:24.345Z,28.55
2022-12-04T22:56:51.269Z,28.60
2022-12-04T22:59:18.108Z,30.58
2022-12-04T23:01:45.013Z,27.80
2022-12-04T23:04:11.899Z,28.90
2022-12-04T23:06:38.816Z,29.55
2022-12-04T23:09:16.100Z,30.48
2022-12-04T23:11:43.137Z,29.90
2022-12-04T23:14:13.923Z,29.90
2022-12-04T23:16:41.152Z,29.80
2022-12-04T23:19:08.390Z,28.52
2022-12-04T23:21:35.318Z,30.67
2022-12-04T23:24:02.313Z,29.60
2022-12-04T23:26:38.513Z,29.42
2022-12-04T23:29:23.355Z,30.45
2022-12-04T23:31:52.898Z,29.52
2022-12-04T23:34:19.898Z,30.25
2022-12-04T23:36:46.741Z,30.98
2022-12-04T23:39:13.599Z,29.48
2022-12-04T23:41:40.500Z,30.08
2022-12-04T23:44:07.346Z,29.40
2022-12-04T23:46:34.446Z,29.33
2022-12-04T23:49:01.529Z,29.17
2022-12-04T23:51:28.531Z,29.92
2022-12-04T23:53:55.580Z,29.55
2022-12-04T23:56:26.507Z,29.40
2022-12-04T23:58:54.483Z,29.38
